createdAt,value
2022-08-16T00:01:40.852Z,0.00
2022-08-16T00:06:39.493Z,0.00
2022-08-16T00:11:37.818Z,0.00
2022-08-16T00:17:06.680Z,0.00
2022-08-16T00:21:38.844Z,0.00
2022-08-16T00:26:44.960Z,0.00
2022-08-16T00:31:59.624Z,0.00
2022-08-16T00:36:47.316Z,0.00
2022-08-16T00:41:38.591Z,0.00
2022-08-16T00:46:37.438Z,0.00
2022-08-16T00:51:38.627Z,0.00
2022-08-16T00:56:56.171Z,0.00
2022-08-16T01:01:38.240Z,0.00
2022-08-16T01:06:48.580Z,0.00
2022-08-16T01:11:37.983Z,0.00
2022-08-16T01:16:37.899Z,0.00
2022-08-16T01:21:39.709Z,0.00
2022-08-16T01:26:36.866Z,0.00
2022-08-16T01:31:42.563Z,0.00
2022-08-16T01:36:40.720Z,0.00
2022-08-16T01:41:42.123Z,0.00
2022-08-16T01:46:39.838Z,0.00
2022-08-16T01:51:36.413Z,0.00
2022-08-16T01:56:36.442Z,0.00
2022-08-16T02:01:36.438Z,0.00
2022-08-16T02:06:38.615Z,0.00
2022-08-16T02:11:47.855Z,0.00
2022-08-16T02:16:37.273Z,0.00
2022-08-16T02:21:36.011Z,0.00
2022-08-16T02:26:36.151Z,0.00
2022-08-16T02:32:03.815Z,0.00
2022-08-16T02:36:47.335Z,0.00
2022-08-16T02:41:37.380Z,0.00
2022-08-16T02:46:35.870Z,0.00
2022-08-16T02:51:35.841Z,0.00
2022-08-16T02:56:35.835Z,0.00
2022-08-16T03:01:37.183Z,0.00
2022-08-16T03:06:38.869Z,0.00
2022-08-16T03:11:36.407Z,0.00
2022-08-16T03:16:39.104Z,0.00
2022-08-16T03:21:37.763Z,0.00
2022-08-16T03:26:35.203Z,0.00
2022-08-16T03:31:40.560Z,4.00
2022-08-16T03:36:39.213Z,12.00
2022-08-16T03:41:50.149Z,28.00
2022-08-16T03:46:47.420Z,56.00
2022-08-16T03:51:35.872Z,100.00
2022-08-16T03:56:34.780Z,168.00
2022-08-16T04:01:34.762Z,264.00
2022-08-16T04:06:34.667Z,392.00
2022-08-16T04:11:36.863Z,552.00
2022-08-16T04:16:34.558Z,752.00
2022-08-16T04:21:34.739Z,1104.00
2022-08-16T04:26:34.430Z,1396.00
2022-08-16T04:31:34.273Z,2172.00
2022-08-16T04:36:37.225Z,3180.00
2022-08-16T04:41:37.636Z,5752.00
2022-08-16T04:47:02.765Z,5540.00
2022-08-16T04:51:36.013Z,5680.00
2022-08-16T04:56:34.189Z,6788.00
2022-08-16T05:01:58.937Z,7384.00
2022-08-16T05:06:42.146Z,8032.00
2022-08-16T05:11:34.776Z,8636.00
2022-08-16T05:16:33.744Z,9444.00
2022-08-16T05:21:35.965Z,10384.00
2022-08-16T05:26:34.890Z,11228.00
2022-08-16T05:31:35.117Z,11912.00
2022-08-16T05:36:37.202Z,5032.00
2022-08-16T05:41:33.388Z,5208.00
2022-08-16T05:46:34.543Z,5184.00
2022-08-16T05:51:37.639Z,5264.00
2022-08-16T05:56:37.720Z,11016.00
2022-08-16T06:01:33.229Z,16320.00
2022-08-16T06:06:34.672Z,6476.00
2022-08-16T06:11:33.053Z,16000.00
2022-08-16T06:16:33.084Z,19456.00
2022-08-16T06:31:56.158Z,23456.00
2022-08-16T06:36:59.305Z,26624.00
2022-08-16T06:44:42.179Z,31072.00
2022-08-16T06:54:18.998Z,32800.00
2022-08-16T07:33:52.468Z,46656.00
2022-08-16T07:38:50.656Z,44704.00
2022-08-16T07:43:50.344Z,47040.00
2022-08-16T07:48:55.350Z,48000.00
2022-08-16T07:59:52.857Z,50080.00
2022-08-16T08:10:35.027Z,45024.00
2022-08-16T08:15:34.471Z,45152.00
2022-08-16T08:20:33.739Z,12620.00
2022-08-16T08:25:53.827Z,10352.00
2022-08-16T08:30:51.542Z,7884.00
2022-08-16T08:35:33.436Z,7336.00
2022-08-16T08:46:28.182Z,7632.00
2022-08-16T08:52:40.657Z,7036.00
2022-08-16T08:57:40.646Z,6456.00
2022-08-16T09:02:40.066Z,6852.00
2022-08-16T09:08:00.959Z,6960.00
2022-08-16T09:12:41.066Z,7016.00
2022-08-16T09:17:51.660Z,8452.00
2022-08-16T09:22:40.877Z,9008.00
2022-08-16T09:27:56.833Z,10956.00
2022-08-16T09:32:40.794Z,10096.00
2022-08-16T09:37:40.590Z,10956.00
2022-08-16T09:42:55.822Z,10756.00
2022-08-16T09:47:57.147Z,11148.00
2022-08-16T09:52:44.106Z,9900.00
2022-08-16T09:57:40.302Z,8724.00
2022-08-16T10:02:48.889Z,9420.00
2022-08-16T10:07:55.867Z,9896.00
2022-08-16T10:12:42.500Z,11404.00
2022-08-16T10:17:39.247Z,7980.00
2022-08-16T10:22:39.170Z,6820.00
2022-08-16T10:27:46.148Z,8344.00
2022-08-16T10:32:40.178Z,8748.00
2022-08-16T10:37:39.109Z,8780.00
2022-08-16T10:42:41.937Z,9472.00
2022-08-16T10:47:38.915Z,11032.00
2022-08-16T10:57:38.545Z,11480.00
2022-08-16T11:02:58.872Z,12416.00
2022-08-16T11:07:45.415Z,7488.00
2022-08-16T11:12:39.573Z,6800.00
2022-08-16T11:17:38.456Z,7664.00
2022-08-16T11:22:48.533Z,9444.00
2022-08-16T11:27:39.136Z,9524.00
2022-08-16T11:32:38.124Z,9696.00
2022-08-16T11:42:42.293Z,13608.00
2022-08-16T11:47:37.963Z,16672.00
2022-08-16T11:52:37.870Z,15456.00
2022-08-16T11:57:37.964Z,12892.00
2022-08-16T12:02:37.887Z,10424.00
2022-08-16T12:07:38.652Z,9640.00
2022-08-16T12:12:37.619Z,10180.00
2022-08-16T12:17:38.829Z,13932.00
2022-08-16T12:22:37.581Z,14656.00
2022-08-16T12:27:39.476Z,12116.00
2022-08-16T12:32:41.928Z,12404.00
2022-08-16T12:37:38.911Z,14020.00
2022-08-16T12:42:40.249Z,13444.00
2022-08-16T12:47:38.197Z,14404.00
2022-08-16T12:52:41.669Z,14068.00
2022-08-16T12:57:38.134Z,12632.00
2022-08-16T13:02:36.951Z,13820.00
2022-08-16T13:07:42.587Z,13256.00
2022-08-16T13:12:37.865Z,12800.00
2022-08-16T13:17:37.974Z,9200.00
2022-08-16T13:22:37.878Z,8416.00
2022-08-16T13:28:02.604Z,9144.00
2022-08-16T13:32:39.785Z,8972.00
2022-08-16T13:37:36.556Z,10964.00
2022-08-16T13:42:41.472Z,12708.00
2022-08-16T13:47:36.658Z,9620.00
2022-08-16T13:52:44.710Z,9176.00
2022-08-16T13:57:53.563Z,9012.00
2022-08-16T14:02:37.313Z,10076.00
2022-08-16T14:07:36.412Z,11520.00
2022-08-16T14:12:36.343Z,10312.00
2022-08-16T14:18:14.791Z,9848.00
2022-08-16T14:22:40.001Z,9524.00
2022-08-16T14:27:39.034Z,10448.00
2022-08-16T14:32:37.099Z,9988.00
2022-08-16T14:37:35.909Z,10220.00
2022-08-16T14:42:39.827Z,10752.00
2022-08-16T14:47:35.739Z,10384.00
2022-08-16T14:52:55.242Z,10208.00
2022-08-16T14:57:36.750Z,10816.00
2022-08-16T15:02:35.471Z,11032.00
2022-08-16T15:07:35.581Z,11012.00
2022-08-16T15:12:36.335Z,10984.00
2022-08-16T15:17:36.998Z,10636.00
2022-08-16T15:22:35.388Z,9004.00
2022-08-16T15:27:35.767Z,6036.00
2022-08-16T15:32:35.249Z,6064.00
2022-08-16T15:37:53.360Z,4932.00
2022-08-16T15:42:39.094Z,4440.00
2022-08-16T15:47:35.565Z,4476.00
2022-08-16T15:52:35.886Z,4432.00
2022-08-16T15:57:41.151Z,4196.00
2022-08-16T16:02:35.873Z,4836.00
2022-08-16T16:07:34.756Z,5120.00
2022-08-16T16:12:53.806Z,5168.00
2022-08-16T16:17:35.597Z,4640.00
2022-08-16T16:22:34.452Z,4008.00
2022-08-16T16:27:34.433Z,3512.00
2022-08-16T16:32:34.919Z,3284.00
2022-08-16T16:37:34.304Z,3572.00
2022-08-16T16:42:44.159Z,3048.00
2022-08-16T16:47:40.713Z,3116.00
2022-08-16T16:52:44.748Z,2996.00
2022-08-16T16:57:35.307Z,2812.00
2022-08-16T17:02:41.861Z,2880.00
2022-08-16T17:07:34.992Z,2700.00
2022-08-16T17:12:47.008Z,2692.00
2022-08-16T17:17:59.431Z,2856.00
2022-08-16T17:22:34.761Z,2656.00
2022-08-16T17:27:34.247Z,2388.00
2022-08-16T17:32:47.440Z,2164.00
2022-08-16T17:37:50.741Z,1972.00
2022-08-16T17:42:37.492Z,1768.00
2022-08-16T17:47:33.436Z,1584.00
2022-08-16T17:52:33.355Z,1420.00
2022-08-16T17:57:33.295Z,1212.00
2022-08-16T18:02:43.408Z,1028.00
2022-08-16T18:07:34.154Z,868.00
2022-08-16T18:12:51.084Z,692.00
2022-08-16T18:17:34.046Z,544.00
2022-08-16T18:22:32.936Z,388.00
2022-08-16T18:27:32.847Z,264.00
2022-08-16T18:32:32.792Z,176.00
2022-08-16T18:37:33.773Z,108.00
2022-08-16T18:42:35.702Z,64.00
2022-08-16T18:47:32.785Z,32.00
2022-08-16T18:52:32.826Z,16.00
2022-08-16T18:57:32.451Z,8.00
2022-08-16T19:02:43.004Z,0.00
2022-08-16T19:07:35.149Z,0.00
2022-08-16T19:12:37.970Z,0.00
2022-08-16T19:17:33.341Z,0.00
2022-08-16T19:22:59.579Z,0.00
2022-08-16T19:27:33.743Z,0.00
2022-08-16T19:32:32.168Z,0.00
2022-08-16T19:37:32.061Z,0.00
2022-08-16T19:42:34.981Z,0.00
2022-08-16T19:47:31.862Z,0.00
2022-08-16T19:52:31.855Z,0.00
2022-08-16T19:57:31.841Z,0.00
2022-08-16T20:02:36.104Z,0.00
2022-08-16T20:07:32.753Z,0.00
2022-08-16T20:12:31.417Z,0.00
2022-08-16T20:17:31.487Z,0.00
2022-08-16T20:22:52.431Z,0.00
2022-08-16T20:27:32.349Z,0.00
2022-08-16T20:32:36.094Z,0.00
2022-08-16T20:37:32.207Z,0.00
2022-08-16T20:42:34.160Z,0.00
2022-08-16T20:47:31.007Z,0.00
2022-08-16T20:52:30.966Z,0.00
2022-08-16T20:57:30.940Z,0.00
2022-08-16T21:02:30.802Z,0.00
2022-08-16T21:07:30.724Z,0.00
2022-08-16T21:12:31.448Z,0.00
2022-08-16T21:17:30.611Z,0.00
2022-08-16T21:22:30.615Z,0.00
2022-08-16T21:27:30.457Z,0.00
2022-08-16T21:32:35.375Z,0.00
2022-08-16T21:37:31.422Z,0.00
2022-08-16T21:42:36.393Z,0.00
2022-08-16T21:47:30.222Z,0.00
2022-08-16T21:52:30.244Z,0.00
2022-08-16T21:57:36.270Z,0.00
2022-08-16T22:02:32.736Z,0.00
2022-08-16T22:07:29.980Z,0.00
2022-08-16T22:12:30.013Z,0.00
2022-08-16T22:17:29.843Z,0.00
2022-08-16T22:22:38.467Z,0.00
2022-08-16T22:27:29.806Z,0.00
2022-08-16T22:32:29.625Z,0.00
2022-08-16T22:37:29.686Z,0.00
2022-08-16T22:42:32.515Z,0.00
2022-08-16T22:47:29.443Z,0.00
2022-08-16T22:52:36.753Z,0.00
2022-08-16T22:57:30.324Z,0.00
2022-08-16T23:02:29.197Z,0.00
2022-08-16T23:07:29.152Z,0.00
2022-08-16T23:12:30.770Z,0.00
2022-08-16T23:17:29.100Z,0.00
2022-08-16T23:22:28.923Z,0.00
2022-08-16T23:27:29.051Z,0.00
2022-08-16T23:32:28.903Z,0.00
2022-08-16T23:37:34.654Z,0.00
2022-08-16T23:42:44.693Z,0.00
2022-08-16T23:47:29.624Z,0.00
2022-08-16T23:52:53.209Z,0.00
2022-08-16T23:57:29.541Z,0.00
